Weather at Münster Osnabrück Airport

Public forecast

Using degrees Celsius for public forecast. Weather courtesy of forecast.io.

Current aviation weather report (METAR) for Münster Osnabrück Airport

2024/02/24 09:50 (retrieved 18 minutes ago)

EDDG 240950Z AUTO 18008KT 140V210 9999 FEW034 07/03 Q0998 TEMPO SHRA BKN020TCU

Aviation forecast (TAF) for Münster Osnabrück Airport

2024/02/24 06:27 (retrieved 4 hours ago)

TAF EDDG 240500Z 2406/2506 15005KT 9999 SCT030 BECMG 2408/2411 21010KT PROB40 TEMPO 2410/2415 21015G25KT SHRA BKN025CB BECMG 2416/2420 15005KT